sensor_id;sensor_type;location;lat;lon;timestamp;pressure;altitude;pressure_sealevel;temperature;humidity
71996;BME280;59862;47.732;7.346;2022-12-18T00:01:26;99077.80;;;-6.76;86.79
71996;BME280;59862;47.732;7.346;2022-12-18T00:03:55;99077.67;;;-6.73;86.72
71996;BME280;59862;47.732;7.346;2022-12-18T00:06:24;99081.05;;;-6.70;86.53
71996;BME280;59862;47.732;7.346;2022-12-18T00:08:53;99084.45;;;-6.68;86.40
71996;BME280;59862;47.732;7.346;2022-12-18T00:11:22;99080.13;;;-6.69;86.32
71996;BME280;59862;47.732;7.346;2022-12-18T00:13:51;99083.95;;;-6.79;86.36
71996;BME280;59862;47.732;7.346;2022-12-18T00:16:22;99082.66;;;-6.79;86.31
71996;BME280;59862;47.732;7.346;2022-12-18T00:18:52;99088.73;;;-6.78;86.23
71996;BME280;59862;47.732;7.346;2022-12-18T00:21:21;99091.22;;;-6.62;86.10
71996;BME280;59862;47.732;7.346;2022-12-18T00:23:49;99097.09;;;-6.69;85.98
71996;BME280;59862;47.732;7.346;2022-12-18T00:26:20;99098.90;;;-6.71;85.91
71996;BME280;59862;47.732;7.346;2022-12-18T00:28:48;99092.88;;;-6.73;85.88
71996;BME280;59862;47.732;7.346;2022-12-18T00:31:18;99091.70;;;-6.76;85.87
71996;BME280;59862;47.732;7.346;2022-12-18T00:33:47;99094.19;;;-6.86;85.92
71996;BME280;59862;47.732;7.346;2022-12-18T00:36:20;99091.98;;;-6.98;86.05
71996;BME280;59862;47.732;7.346;2022-12-18T00:38:48;99086.47;;;-7.02;86.24
71996;BME280;59862;47.732;7.346;2022-12-18T00:41:17;99085.47;;;-6.98;86.37
71996;BME280;59862;47.732;7.346;2022-12-18T00:44:04;99081.26;;;-7.02;86.51
71996;BME280;59862;47.732;7.346;2022-12-18T00:46:34;99084.97;;;-6.83;86.50
71996;BME280;59862;47.732;7.346;2022-12-18T00:49:01;99081.77;;;-6.91;86.43
71996;BME280;59862;47.732;7.346;2022-12-18T00:51:29;99083.36;;;-7.00;86.43
71996;BME280;59862;47.732;7.346;2022-12-18T00:53:57;99085.05;;;-6.99;86.47
71996;BME280;59862;47.732;7.346;2022-12-18T00:56:24;99084.41;;;-6.92;86.43
71996;BME280;59862;47.732;7.346;2022-12-18T00:58:52;99086.06;;;-6.90;86.33
71996;BME280;59862;47.732;7.346;2022-12-18T01:01:20;99099.76;;;-6.83;86.26
71996;BME280;59862;47.732;7.346;2022-12-18T01:03:47;99108.89;;;-6.83;86.11
71996;BME280;59862;47.732;7.346;2022-12-18T01:06:15;99102.28;;;-6.80;86.00
71996;BME280;59862;47.732;7.346;2022-12-18T01:08:43;99103.23;;;-6.83;85.93
71996;BME280;59862;47.732;7.346;2022-12-18T01:11:14;99099.22;;;-6.93;85.88
71996;BME280;59862;47.732;7.346;2022-12-18T01:13:42;99102.07;;;-6.87;85.83
71996;BME280;59862;47.732;7.346;2022-12-18T01:16:11;99111.92;;;-6.82;85.76
71996;BME280;59862;47.732;7.346;2022-12-18T01:18:40;99107.49;;;-6.93;85.76
71996;BME280;59862;47.732;7.346;2022-12-18T01:21:14;99106.17;;;-7.07;85.85
71996;BME280;59862;47.732;7.346;2022-12-18T01:23:41;99112.83;;;-7.11;86.10
71996;BME280;59862;47.732;7.346;2022-12-18T01:26:11;99122.41;;;-7.12;86.32
71996;BME280;59862;47.732;7.346;2022-12-18T01:28:39;99121.16;;;-7.13;86.46
71996;BME280;59862;47.732;7.346;2022-12-18T01:31:12;99114.80;;;-7.05;86.55
71996;BME280;59862;47.732;7.346;2022-12-18T01:33:40;99107.05;;;-6.93;86.56
71996;BME280;59862;47.732;7.346;2022-12-18T01:36:08;99110.55;;;-6.94;86.61
71996;BME280;59862;47.732;7.346;2022-12-18T01:38:37;99109.98;;;-6.90;86.63
71996;BME280;59862;47.732;7.346;2022-12-18T01:41:04;99115.66;;;-7.04;86.59
71996;BME280;59862;47.732;7.346;2022-12-18T01:43:50;99119.63;;;-7.20;86.74
71996;BME280;59862;47.732;7.346;2022-12-18T01:46:20;99128.48;;;-7.11;86.89
71996;BME280;59862;47.732;7.346;2022-12-18T01:48:50;99132.78;;;-7.10;86.88
71996;BME280;59862;47.732;7.346;2022-12-18T01:51:18;99135.39;;;-7.10;87.01
71996;BME280;59862;47.732;7.346;2022-12-18T01:53:48;99132.11;;;-7.02;87.07
71996;BME280;59862;47.732;7.346;2022-12-18T01:56:18;99135.08;;;-7.14;87.04
71996;BME280;59862;47.732;7.346;2022-12-18T01:59:01;99146.20;;;-7.22;87.19
71996;BME280;59862;47.732;7.346;2022-12-18T02:01:45;99139.91;;;-7.15;87.24
71996;BME280;59862;47.732;7.346;2022-12-18T02:04:21;99135.72;;;-7.06;87.29
71996;BME280;59862;47.732;7.346;2022-12-18T02:07:03;99130.55;;;-6.95;87.22
71996;BME280;59862;47.732;7.346;2022-12-18T02:09:43;99133.80;;;-6.86;87.14
71996;BME280;59862;47.732;7.346;2022-12-18T02:12:27;99134.45;;;-6.80;87.04
71996;BME280;59862;47.732;7.346;2022-12-18T02:15:13;99125.48;;;-6.99;86.88
71996;BME280;59862;47.732;7.346;2022-12-18T02:17:43;99120.08;;;-7.06;86.93
71996;BME280;59862;47.732;7.346;2022-12-18T02:20:17;99122.27;;;-7.07;87.03
71996;BME280;59862;47.732;7.346;2022-12-18T02:28:06;99130.14;;;-7.09;87.18
71996;BME280;59862;47.732;7.346;2022-12-18T02:30:35;99130.80;;;-7.02;87.19
71996;BME280;59862;47.732;7.346;2022-12-18T02:33:06;99136.12;;;-6.92;87.16
71996;BME280;59862;47.732;7.346;2022-12-18T02:35:36;99141.64;;;-6.88;87.05
71996;BME280;59862;47.732;7.346;2022-12-18T02:38:05;99135.84;;;-6.83;86.98
71996;BME280;59862;47.732;7.346;2022-12-18T02:40:33;99139.90;;;-6.87;86.92
71996;BME280;59862;47.732;7.346;2022-12-18T02:43:10;99134.92;;;-6.82;86.90
71996;BME280;59862;47.732;7.346;2022-12-18T02:45:56;99141.16;;;-6.73;86.77
71996;BME280;59862;47.732;7.346;2022-12-18T02:48:26;99128.41;;;-6.69;86.63
71996;BME280;59862;47.732;7.346;2022-12-18T02:53:57;99124.31;;;-6.76;86.49
71996;BME280;59862;47.732;7.346;2022-12-18T02:56:28;99126.00;;;-6.62;86.54
71996;BME280;59862;47.732;7.346;2022-12-18T02:59:21;99127.60;;;-6.71;86.45
71996;BME280;59862;47.732;7.346;2022-12-18T03:01:57;99147.47;;;-6.67;86.42
71996;BME280;59862;47.732;7.346;2022-12-18T03:04:30;99153.02;;;-6.76;86.38
71996;BME280;59862;47.732;7.346;2022-12-18T03:07:01;99147.67;;;-6.73;86.41
71996;BME280;59862;47.732;7.346;2022-12-18T03:09:35;99146.14;;;-6.65;86.45
71996;BME280;59862;47.732;7.346;2022-12-18T03:12:07;99142.31;;;-6.68;86.44
71996;BME280;59862;47.732;7.346;2022-12-18T03:15:08;99140.80;;;-6.62;86.43
71996;BME280;59862;47.732;7.346;2022-12-18T03:17:34;99135.91;;;-6.58;86.32
71996;BME280;59862;47.732;7.346;2022-12-18T03:20:14;99126.72;;;-6.70;86.26
71996;BME280;59862;47.732;7.346;2022-12-18T03:22:44;99130.21;;;-6.58;86.31
71996;BME280;59862;47.732;7.346;2022-12-18T03:25:14;99137.69;;;-6.47;86.26
71996;BME280;59862;47.732;7.346;2022-12-18T03:27:46;99140.85;;;-6.38;86.15
71996;BME280;59862;47.732;7.346;2022-12-18T03:30:14;99143.47;;;-6.38;85.96
71996;BME280;59862;47.732;7.346;2022-12-18T03:32:48;99141.45;;;-6.43;85.93
71996;BME280;59862;47.732;7.346;2022-12-18T03:35:19;99139.55;;;-6.38;85.88
71996;BME280;59862;47.732;7.346;2022-12-18T03:37:47;99131.27;;;-6.37;85.71
71996;BME280;59862;47.732;7.346;2022-12-18T03:40:14;99135.42;;;-6.32;85.69
71996;BME280;59862;47.732;7.346;2022-12-18T03:42:48;99135.68;;;-6.26;85.62
71996;BME280;59862;47.732;7.346;2022-12-18T03:45:24;99132.08;;;-6.24;85.57
71996;BME280;59862;47.732;7.346;2022-12-18T03:48:52;99138.09;;;-6.33;85.52
71996;BME280;59862;47.732;7.346;2022-12-18T03:50:56;99139.53;;;-6.25;85.47
71996;BME280;59862;47.732;7.346;2022-12-18T03:55:51;99131.64;;;-6.23;85.28
71996;BME280;59862;47.732;7.346;2022-12-18T03:58:24;99128.78;;;-6.15;85.27
71996;BME280;59862;47.732;7.346;2022-12-18T04:00:55;99133.36;;;-6.22;85.19
71996;BME280;59862;47.732;7.346;2022-12-18T04:03:24;99135.11;;;-6.23;85.22
71996;BME280;59862;47.732;7.346;2022-12-18T04:05:54;99139.47;;;-6.23;85.21
71996;BME280;59862;47.732;7.346;2022-12-18T04:08:24;99135.70;;;-6.28;85.28
71996;BME280;59862;47.732;7.346;2022-12-18T04:10:52;99133.14;;;-6.16;85.35
71996;BME280;59862;47.732;7.346;2022-12-18T04:13:25;99128.91;;;-6.07;85.29
71996;BME280;59862;47.732;7.346;2022-12-18T04:15:53;99129.13;;;-6.01;85.12
71996;BME280;59862;47.732;7.346;2022-12-18T04:18:20;99136.68;;;-6.05;85.02
71996;BME280;59862;47.732;7.346;2022-12-18T04:20:48;99138.18;;;-5.98;84.93
71996;BME280;59862;47.732;7.346;2022-12-18T04:23:15;99134.80;;;-6.02;84.86
71996;BME280;59862;47.732;7.346;2022-12-18T04:25:43;99135.16;;;-5.99;84.80
71996;BME280;59862;47.732;7.346;2022-12-18T04:28:10;99140.19;;;-5.93;84.71
71996;BME280;59862;47.732;7.346;2022-12-18T04:30:37;99143.20;;;-5.82;84.62
71996;BME280;59862;47.732;7.346;2022-12-18T04:33:10;99133.97;;;-5.79;84.46
71996;BME280;59862;47.732;7.346;2022-12-18T04:35:41;99129.63;;;-5.80;84.40
71996;BME280;59862;47.732;7.346;2022-12-18T04:38:08;99123.34;;;-5.75;84.29
71996;BME280;59862;47.732;7.346;2022-12-18T04:40:37;99127.80;;;-5.65;84.11
71996;BME280;59862;47.732;7.346;2022-12-18T04:43:05;99131.35;;;-5.79;84.10
71996;BME280;59862;47.732;7.346;2022-12-18T04:45:33;99133.08;;;-5.90;84.10
71996;BME280;59862;47.732;7.346;2022-12-18T04:48:02;99133.02;;;-5.88;84.17
71996;BME280;59862;47.732;7.346;2022-12-18T04:50:30;99121.41;;;-5.81;84.16
71996;BME280;59862;47.732;7.346;2022-12-18T04:52:58;99123.92;;;-5.78;84.15
71996;BME280;59862;47.732;7.346;2022-12-18T04:55:26;99127.02;;;-5.80;84.18
71996;BME280;59862;47.732;7.346;2022-12-18T04:57:54;99127.65;;;-5.74;84.24
71996;BME280;59862;47.732;7.346;2022-12-18T05:00:22;99123.80;;;-5.75;84.25
71996;BME280;59862;47.732;7.346;2022-12-18T05:02:49;99122.27;;;-5.81;84.34
71996;BME280;59862;47.732;7.346;2022-12-18T05:05:17;99121.26;;;-5.88;84.50
71996;BME280;59862;47.732;7.346;2022-12-18T05:07:44;99124.75;;;-5.78;84.60
71996;BME280;59862;47.732;7.346;2022-12-18T05:10:12;99130.05;;;-5.79;84.64
71996;BME280;59862;47.732;7.346;2022-12-18T05:12:39;99124.91;;;-5.82;84.59
71996;BME280;59862;47.732;7.346;2022-12-18T05:15:09;99127.53;;;-5.82;84.61
71996;BME280;59862;47.732;7.346;2022-12-18T05:17:36;99127.95;;;-5.93;84.63
71996;BME280;59862;47.732;7.346;2022-12-18T05:20:04;99124.91;;;-5.82;84.70
71996;BME280;59862;47.732;7.346;2022-12-18T05:22:32;99122.84;;;-5.73;84.64
71996;BME280;59862;47.732;7.346;2022-12-18T05:24:59;99126.77;;;-5.84;84.79
71996;BME280;59862;47.732;7.346;2022-12-18T05:27:27;99121.02;;;-5.71;84.81
71996;BME280;59862;47.732;7.346;2022-12-18T05:29:54;99117.05;;;-5.58;84.65
71996;BME280;59862;47.732;7.346;2022-12-18T05:32:21;99116.19;;;-5.58;84.45
71996;BME280;59862;47.732;7.346;2022-12-18T05:34:49;99121.41;;;-5.58;84.27
71996;BME280;59862;47.732;7.346;2022-12-18T05:37:17;99122.94;;;-5.76;84.22
71996;BME280;59862;47.732;7.346;2022-12-18T05:39:45;99124.66;;;-5.75;84.34
71996;BME280;59862;47.732;7.346;2022-12-18T05:42:12;99131.33;;;-5.89;84.48
71996;BME280;59862;47.732;7.346;2022-12-18T05:44:39;99136.08;;;-5.89;84.73
71996;BME280;59862;47.732;7.346;2022-12-18T05:47:07;99136.86;;;-5.75;84.81
71996;BME280;59862;47.732;7.346;2022-12-18T05:49:35;99136.44;;;-5.63;84.73
71996;BME280;59862;47.732;7.346;2022-12-18T05:52:02;99137.94;;;-5.69;84.71
71996;BME280;59862;47.732;7.346;2022-12-18T05:54:29;99137.42;;;-5.67;84.66
71996;BME280;59862;47.732;7.346;2022-12-18T05:56:57;99134.66;;;-5.74;84.69
71996;BME280;59862;47.732;7.346;2022-12-18T05:59:25;99135.84;;;-5.71;84.64
71996;BME280;59862;47.732;7.346;2022-12-18T06:01:53;99123.47;;;-5.66;84.56
71996;BME280;59862;47.732;7.346;2022-12-18T06:04:20;99133.34;;;-5.63;84.46
71996;BME280;59862;47.732;7.346;2022-12-18T06:06:48;99138.81;;;-5.57;84.39
71996;BME280;59862;47.732;7.346;2022-12-18T06:09:15;99143.96;;;-5.67;84.41
71996;BME280;59862;47.732;7.346;2022-12-18T06:11:42;99139.98;;;-5.77;84.58
71996;BME280;59862;47.732;7.346;2022-12-18T06:14:10;99146.29;;;-5.71;84.65
71996;BME280;59862;47.732;7.346;2022-12-18T06:16:37;99146.29;;;-5.71;84.72
71996;BME280;59862;47.732;7.346;2022-12-18T06:19:05;99154.48;;;-5.69;84.73
71996;BME280;59862;47.732;7.346;2022-12-18T06:21:33;99152.22;;;-5.66;84.67
71996;BME280;59862;47.732;7.346;2022-12-18T06:24:01;99164.78;;;-5.64;84.65
71996;BME280;59862;47.732;7.346;2022-12-18T06:26:28;99156.94;;;-5.64;84.65
71996;BME280;59862;47.732;7.346;2022-12-18T06:28:56;99167.95;;;-5.56;84.64
71996;BME280;59862;47.732;7.346;2022-12-18T06:31:24;99164.00;;;-5.55;84.60
71996;BME280;59862;47.732;7.346;2022-12-18T06:33:51;99170.14;;;-5.44;84.50
71996;BME280;59862;47.732;7.346;2022-12-18T06:36:19;99173.18;;;-5.56;84.49
71996;BME280;59862;47.732;7.346;2022-12-18T06:38:47;99174.34;;;-5.63;84.58
71996;BME280;59862;47.732;7.346;2022-12-18T06:41:17;99178.55;;;-5.59;84.66
71996;BME280;59862;47.732;7.346;2022-12-18T06:43:45;99183.83;;;-5.49;84.58
71996;BME280;59862;47.732;7.346;2022-12-18T06:46:13;99184.28;;;-5.61;84.57
71996;BME280;59862;47.732;7.346;2022-12-18T06:48:41;99188.02;;;-5.68;84.67
71996;BME280;59862;47.732;7.346;2022-12-18T06:51:09;99183.74;;;-5.71;84.66
71996;BME280;59862;47.732;7.346;2022-12-18T06:53:36;99191.23;;;-5.73;84.78
71996;BME280;59862;47.732;7.346;2022-12-18T06:56:06;99195.28;;;-5.76;84.88
71996;BME280;59862;47.732;7.346;2022-12-18T06:58:34;99199.11;;;-5.85;85.16
71996;BME280;59862;47.732;7.346;2022-12-18T07:01:03;99209.02;;;-5.71;85.33
71996;BME280;59862;47.732;7.346;2022-12-18T07:03:31;99204.27;;;-5.60;85.25
71996;BME280;59862;47.732;7.346;2022-12-18T07:05:59;99212.23;;;-5.63;85.14
71996;BME280;59862;47.732;7.346;2022-12-18T07:08:26;99222.50;;;-5.59;85.08
71996;BME280;59862;47.732;7.346;2022-12-18T07:10:56;99226.80;;;-5.69;85.11
71996;BME280;59862;47.732;7.346;2022-12-18T07:13:23;99229.06;;;-5.83;85.37
71996;BME280;59862;47.732;7.346;2022-12-18T07:15:51;99229.69;;;-5.88;85.61
71996;BME280;59862;47.732;7.346;2022-12-18T07:18:18;99234.62;;;-5.92;85.92
71996;BME280;59862;47.732;7.346;2022-12-18T07:20:46;99239.52;;;-5.83;86.07
71996;BME280;59862;47.732;7.346;2022-12-18T07:23:13;99241.81;;;-5.99;86.35
71996;BME280;59862;47.732;7.346;2022-12-18T07:25:41;99243.21;;;-6.02;86.58
71996;BME280;59862;47.732;7.346;2022-12-18T07:28:08;99239.77;;;-6.02;86.83
71996;BME280;59862;47.732;7.346;2022-12-18T07:30:37;99245.65;;;-6.09;87.09
71996;BME280;59862;47.732;7.346;2022-12-18T07:33:05;99249.80;;;-6.03;87.25
71996;BME280;59862;47.732;7.346;2022-12-18T07:35:33;99249.72;;;-6.13;87.54
71996;BME280;59862;47.732;7.346;2022-12-18T07:38:02;99246.09;;;-6.09;87.89
71996;BME280;59862;47.732;7.346;2022-12-18T07:40:29;99255.45;;;-6.02;88.04
71996;BME280;59862;47.732;7.346;2022-12-18T07:42:57;99255.06;;;-5.80;88.08
71996;BME280;59862;47.732;7.346;2022-12-18T07:45:24;99254.69;;;-5.81;88.05
71996;BME280;59862;47.732;7.346;2022-12-18T07:47:52;99265.88;;;-5.78;88.03
71996;BME280;59862;47.732;7.346;2022-12-18T07:50:19;99267.89;;;-5.73;88.05
71996;BME280;59862;47.732;7.346;2022-12-18T07:52:46;99258.27;;;-5.59;88.05
71996;BME280;59862;47.732;7.346;2022-12-18T07:55:14;99258.78;;;-5.61;87.93
71996;BME280;59862;47.732;7.346;2022-12-18T07:57:41;99263.80;;;-5.55;87.94
71996;BME280;59862;47.732;7.346;2022-12-18T08:00:10;99263.09;;;-5.35;87.89
71996;BME280;59862;47.732;7.346;2022-12-18T08:02:37;99264.58;;;-5.17;87.67
71996;BME280;59862;47.732;7.346;2022-12-18T08:05:05;99261.77;;;-5.24;87.43
71996;BME280;59862;47.732;7.346;2022-12-18T08:07:33;99256.16;;;-5.02;87.31
71996;BME280;59862;47.732;7.346;2022-12-18T08:10:00;99259.80;;;-4.83;87.06
71996;BME280;59862;47.732;7.346;2022-12-18T08:12:27;99253.66;;;-4.82;86.62
71996;BME280;59862;47.732;7.346;2022-12-18T08:14:55;99250.53;;;-4.80;86.36
71996;BME280;59862;47.732;7.346;2022-12-18T08:17:22;99244.16;;;-4.73;86.16
71996;BME280;59862;47.732;7.346;2022-12-18T08:19:50;99242.25;;;-4.57;85.93
71996;BME280;59862;47.732;7.346;2022-12-18T08:22:17;99242.69;;;-4.46;85.61
71996;BME280;59862;47.732;7.346;2022-12-18T08:24:45;99246.27;;;-4.27;85.34
71996;BME280;59862;47.732;7.346;2022-12-18T08:27:12;99240.70;;;-4.30;84.92
71996;BME280;59862;47.732;7.346;2022-12-18T08:29:40;99241.45;;;-4.16;84.79
71996;BME280;59862;47.732;7.346;2022-12-18T08:32:08;99233.08;;;-4.14;84.54
71996;BME280;59862;47.732;7.346;2022-12-18T08:34:35;99235.84;;;-4.07;84.24
71996;BME280;59862;47.732;7.346;2022-12-18T08:37:03;99228.63;;;-4.12;84.05
71996;BME280;59862;47.732;7.346;2022-12-18T08:39:30;99224.02;;;-4.17;84.03
71996;BME280;59862;47.732;7.346;2022-12-18T08:41:57;99231.61;;;-4.21;83.99
71996;BME280;59862;47.732;7.346;2022-12-18T08:44:43;99234.02;;;-3.95;84.02
71996;BME280;59862;47.732;7.346;2022-12-18T08:47:10;99232.85;;;-3.88;83.70
71996;BME280;59862;47.732;7.346;2022-12-18T08:49:38;99237.61;;;-3.88;83.36
71996;BME280;59862;47.732;7.346;2022-12-18T08:52:05;99233.42;;;-4.02;83.14
71996;BME280;59862;47.732;7.346;2022-12-18T08:54:33;99226.19;;;-4.07;82.98
71996;BME280;59862;47.732;7.346;2022-12-18T08:57:00;99228.58;;;-4.01;82.84
71996;BME280;59862;47.732;7.346;2022-12-18T08:59:28;99223.27;;;-3.99;82.73
71996;BME280;59862;47.732;7.346;2022-12-18T09:01:56;99222.45;;;-4.11;82.85
71996;BME280;59862;47.732;7.346;2022-12-18T09:04:23;99218.66;;;-4.04;83.16
71996;BME280;59862;47.732;7.346;2022-12-18T09:06:51;99222.74;;;-3.87;83.21
71996;BME280;59862;47.732;7.346;2022-12-18T09:09:18;99222.50;;;-3.71;82.94
71996;BME280;59862;47.732;7.346;2022-12-18T09:11:45;99222.76;;;-3.47;82.71
71996;BME280;59862;47.732;7.346;2022-12-18T09:14:13;99208.27;;;-3.27;82.32
71996;BME280;59862;47.732;7.346;2022-12-18T09:16:40;99213.20;;;-3.19;81.91
71996;BME280;59862;47.732;7.346;2022-12-18T09:19:09;99213.89;;;-2.87;81.50
71996;BME280;59862;47.732;7.346;2022-12-18T09:21:37;99214.13;;;-2.83;80.82
71996;BME280;59862;47.732;7.346;2022-12-18T09:24:08;99213.73;;;-2.65;80.44
71996;BME280;59862;47.732;7.346;2022-12-18T09:26:37;99209.98;;;-2.51;80.60
71996;BME280;59862;47.732;7.346;2022-12-18T09:29:04;99213.05;;;-2.33;79.74
71996;BME280;59862;47.732;7.346;2022-12-18T09:31:34;99215.86;;;-2.55;79.45
71996;BME280;59862;47.732;7.346;2022-12-18T09:34:04;99221.67;;;-2.48;80.20
71996;BME280;59862;47.732;7.346;2022-12-18T09:36:30;99219.84;;;-2.02;79.78
71996;BME280;59862;47.732;7.346;2022-12-18T09:38:58;99228.19;;;-1.60;78.81
71996;BME280;59862;47.732;7.346;2022-12-18T09:41:50;99229.97;;;-1.10;78.09
71996;BME280;59862;47.732;7.346;2022-12-18T09:49:34;99227.47;;;-0.96;76.22
71996;BME280;59862;47.732;7.346;2022-12-18T09:52:05;99223.22;;;-1.40;76.75
71996;BME280;59862;47.732;7.346;2022-12-18T09:54:42;99224.02;;;-1.81;77.77
71996;BME280;59862;47.732;7.346;2022-12-18T09:57:32;99213.55;;;-2.08;78.96
71996;BME280;59862;47.732;7.346;2022-12-18T09:59:53;99200.49;;;-2.01;79.79
71996;BME280;59862;47.732;7.346;2022-12-18T10:02:30;99204.93;;;-2.37;80.58
71996;BME280;59862;47.732;7.346;2022-12-18T10:05:10;99204.07;;;-2.38;81.76
71996;BME280;59862;47.732;7.346;2022-12-18T10:07:47;99203.66;;;-2.56;81.57
71996;BME280;59862;47.732;7.346;2022-12-18T10:10:32;99208.55;;;-2.40;81.98
71996;BME280;59862;47.732;7.346;2022-12-18T10:16:17;99204.82;;;-2.17;82.56
71996;BME280;59862;47.732;7.346;2022-12-18T10:24:33;99200.80;;;-2.07;81.59
71996;BME280;59862;47.732;7.346;2022-12-18T10:27:34;99208.77;;;-2.17;81.95
71996;BME280;59862;47.732;7.346;2022-12-18T10:29:36;99197.27;;;-2.06;82.49
71996;BME280;59862;47.732;7.346;2022-12-18T10:32:04;99190.92;;;-2.02;82.31
71996;BME280;59862;47.732;7.346;2022-12-18T10:34:31;99195.46;;;-1.97;82.09
71996;BME280;59862;47.732;7.346;2022-12-18T10:37:00;99197.41;;;-1.75;82.28
71996;BME280;59862;47.732;7.346;2022-12-18T10:39:29;99194.14;;;-1.80;82.00
71996;BME280;59862;47.732;7.346;2022-12-18T10:42:17;99189.00;;;-1.40;82.42
71996;BME280;59862;47.732;7.346;2022-12-18T10:44:30;99193.07;;;-1.17;81.50
71996;BME280;59862;47.732;7.346;2022-12-18T10:47:02;99187.10;;;-0.97;81.14
71996;BME280;59862;47.732;7.346;2022-12-18T10:49:30;99180.27;;;-0.92;80.77
71996;BME280;59862;47.732;7.346;2022-12-18T10:52:20;99184.02;;;-0.65;80.68
71996;BME280;59862;47.732;7.346;2022-12-18T10:54:51;99179.25;;;-0.58;79.38
71996;BME280;59862;47.732;7.346;2022-12-18T10:57:39;99174.92;;;-0.21;79.85
71996;BME280;59862;47.732;7.346;2022-12-18T11:00:23;99162.56;;;0.32;78.67
71996;BME280;59862;47.732;7.346;2022-12-18T11:02:51;99168.83;;;1.01;77.12
71996;BME280;59862;47.732;7.346;2022-12-18T11:05:33;99169.73;;;1.21;74.06
71996;BME280;59862;47.732;7.346;2022-12-18T11:08:03;99168.97;;;1.40;73.44
71996;BME280;59862;47.732;7.346;2022-12-18T11:10:37;99166.11;;;1.43;73.99
71996;BME280;59862;47.732;7.346;2022-12-18T11:13:23;99170.34;;;1.12;74.22
71996;BME280;59862;47.732;7.346;2022-12-18T11:15:47;99165.17;;;1.51;75.06
71996;BME280;59862;47.732;7.346;2022-12-18T11:18:22;99156.67;;;1.93;74.03
71996;BME280;59862;47.732;7.346;2022-12-18T11:20:53;99145.06;;;1.42;72.91
71996;BME280;59862;47.732;7.346;2022-12-18T11:23:23;99153.27;;;2.30;72.88
71996;BME280;59862;47.732;7.346;2022-12-18T11:26:02;99160.70;;;2.75;70.65
71996;BME280;59862;47.732;7.346;2022-12-18T11:28:45;99155.20;;;2.78;70.46
71996;BME280;59862;47.732;7.346;2022-12-18T11:31:21;99165.50;;;1.67;71.33
71996;BME280;59862;47.732;7.346;2022-12-18T11:36:28;99157.00;;;1.88;73.98
71996;BME280;59862;47.732;7.346;2022-12-18T11:38:58;99152.84;;;2.36;74.21
71996;BME280;59862;47.732;7.346;2022-12-18T11:44:35;99161.88;;;2.71;72.12
71996;BME280;59862;47.732;7.346;2022-12-18T11:47:19;99157.63;;;2.69;71.44
71996;BME280;59862;47.732;7.346;2022-12-18T11:49:49;99148.52;;;2.48;71.94
71996;BME280;59862;47.732;7.346;2022-12-18T11:52:26;99150.62;;;2.43;73.02
71996;BME280;59862;47.732;7.346;2022-12-18T11:54:59;99148.13;;;2.66;73.37
71996;BME280;59862;47.732;7.346;2022-12-18T11:57:45;99139.84;;;2.83;73.24
71996;BME280;59862;47.732;7.346;2022-12-18T12:00:14;99146.87;;;2.77;72.52
71996;BME280;59862;47.732;7.346;2022-12-18T12:05:38;99127.38;;;2.78;73.23
71996;BME280;59862;47.732;7.346;2022-12-18T12:08:14;99116.19;;;2.80;72.64
71996;BME280;59862;47.732;7.346;2022-12-18T12:10:57;99105.73;;;2.66;72.36
71996;BME280;59862;47.732;7.346;2022-12-18T12:13:41;99109.35;;;2.71;72.92
71996;BME280;59862;47.732;7.346;2022-12-18T12:19:03;99116.08;;;2.94;72.64
71996;BME280;59862;47.732;7.346;2022-12-18T12:40:47;99101.17;;;2.68;71.98
71996;BME280;59862;47.732;7.346;2022-12-18T12:43:22;99099.51;;;2.60;72.25
71996;BME280;59862;47.732;7.346;2022-12-18T12:46:08;99108.83;;;2.78;72.68
71996;BME280;59862;47.732;7.346;2022-12-18T12:49:02;99109.87;;;2.88;72.37
71996;BME280;59862;47.732;7.346;2022-12-18T12:51:37;99115.31;;;2.92;72.33
71996;BME280;59862;47.732;7.346;2022-12-18T12:54:17;99120.11;;;2.87;71.63
71996;BME280;59862;47.732;7.346;2022-12-18T12:59:51;99109.42;;;2.76;72.29
71996;BME280;59862;47.732;7.346;2022-12-18T13:02:24;99113.24;;;3.21;72.58
71996;BME280;59862;47.732;7.346;2022-12-18T13:04:58;99102.93;;;4.00;71.60
71996;BME280;59862;47.732;7.346;2022-12-18T13:07:27;99099.56;;;5.10;69.04
71996;BME280;59862;47.732;7.346;2022-12-18T13:12:56;99103.75;;;6.56;63.63
71996;BME280;59862;47.732;7.346;2022-12-18T13:15:28;99110.95;;;7.01;63.04
71996;BME280;59862;47.732;7.346;2022-12-18T13:18:13;99107.56;;;7.14;60.63
71996;BME280;59862;47.732;7.346;2022-12-18T13:20:43;99111.28;;;7.17;62.47
71996;BME280;59862;47.732;7.346;2022-12-18T13:25:56;99109.52;;;7.37;59.67
71996;BME280;59862;47.732;7.346;2022-12-18T13:31:28;99102.89;;;6.92;59.86
71996;BME280;59862;47.732;7.346;2022-12-18T13:33:45;99101.01;;;6.67;60.96
71996;BME280;59862;47.732;7.346;2022-12-18T13:36:28;99098.34;;;6.67;61.64
71996;BME280;59862;47.732;7.346;2022-12-18T13:44:39;99087.95;;;4.61;65.31
71996;BME280;59862;47.732;7.346;2022-12-18T13:47:26;99092.57;;;4.14;65.34
71996;BME280;59862;47.732;7.346;2022-12-18T13:49:55;99093.63;;;3.71;68.08
71996;BME280;59862;47.732;7.346;2022-12-18T13:52:26;99090.63;;;3.75;68.55
71996;BME280;59862;47.732;7.346;2022-12-18T13:54:59;99089.58;;;2.94;69.58
71996;BME280;59862;47.732;7.346;2022-12-18T14:00:23;99078.81;;;4.14;68.93
71996;BME280;59862;47.732;7.346;2022-12-18T14:02:46;99078.75;;;4.32;66.14
71996;BME280;59862;47.732;7.346;2022-12-18T14:05:31;99074.78;;;4.77;65.80
71996;BME280;59862;47.732;7.346;2022-12-18T14:08:14;99069.66;;;5.29;66.04
71996;BME280;59862;47.732;7.346;2022-12-18T14:10:43;99073.67;;;5.66;64.57
71996;BME280;59862;47.732;7.346;2022-12-18T14:13:33;99073.43;;;5.69;62.09
71996;BME280;59862;47.732;7.346;2022-12-18T14:15:58;99076.22;;;5.14;63.66
71996;BME280;59862;47.732;7.346;2022-12-18T14:18:31;99074.92;;;5.51;63.10
71996;BME280;59862;47.732;7.346;2022-12-18T14:21:00;99074.47;;;5.89;62.77
71996;BME280;59862;47.732;7.346;2022-12-18T14:23:30;99070.70;;;6.33;62.06
71996;BME280;59862;47.732;7.346;2022-12-18T14:25:59;99071.16;;;6.38;60.76
71996;BME280;59862;47.732;7.346;2022-12-18T14:28:26;99074.05;;;6.20;61.60
71996;BME280;59862;47.732;7.346;2022-12-18T14:30:55;99075.91;;;5.87;62.14
71996;BME280;59862;47.732;7.346;2022-12-18T14:33:27;99070.14;;;5.34;61.77
71996;BME280;59862;47.732;7.346;2022-12-18T14:38:30;99075.05;;;4.06;64.61
71996;BME280;59862;47.732;7.346;2022-12-18T14:41:21;99081.38;;;3.57;66.07